Time;durP1;ratioP1;P1;durP2;ratioP2;P2;SDS_P1;SDS_P2;PMS_P1;PMS_P2;Temp;Humidity;BMP_temperature;BMP_pressure;BME280_temperature;BME280_humidity;BME280_pressure;Samples;Min_cycle;Max_cycle;Signal;HPM_P1;HPM_P2
2021/01/09 00:01:16;;;;;;;6.07;3.20;;;10.50;99.90;;;;;;5093276;28;20052;-63
2021/01/09 00:03:44;;;;;;;5.55;2.80;;;10.50;99.90;;;;;;5091470;28;20067;-63
2021/01/09 00:06:11;;;;;;;4.53;2.75;;;10.50;99.90;;;;;;5111830;28;20122;-62
2021/01/09 00:08:39;;;;;;;9.38;4.00;;;10.40;99.90;;;;;;5113243;28;20051;-62
2021/01/09 00:11:09;;;;;;;5.00;2.60;;;10.50;99.90;;;;;;5112574;28;20519;-62
2021/01/09 00:13:37;;;;;;;8.38;2.78;;;10.40;99.90;;;;;;5111675;28;20057;-62
2021/01/09 00:16:07;;;;;;;7.30;2.28;;;10.40;99.90;;;;;;5107709;28;20488;-62
2021/01/09 00:18:35;;;;;;;4.43;2.47;;;10.40;99.90;;;;;;5111333;28;20047;-62
2021/01/09 00:21:03;;;;;;;6.93;2.58;;;10.40;99.90;;;;;;5113163;28;20548;-62
2021/01/09 00:23:31;;;;;;;6.78;2.92;;;10.40;99.90;;;;;;5103734;28;20093;-62
2021/01/09 00:25:58;;;;;;;10.13;2.83;;;10.40;99.90;;;;;;5108440;28;20046;-62
2021/01/09 00:28:26;;;;;;;5.20;2.92;;;10.40;99.90;;;;;;5081616;28;20059;-62
2021/01/09 00:30:57;;;;;;;5.13;2.55;;;10.40;99.90;;;;;;5100266;28;20040;-62
2021/01/09 00:33:24;;;;;;;6.22;2.95;;;10.40;99.90;;;;;;5101256;28;20127;-62
2021/01/09 00:35:56;;;;;;;4.45;2.10;;;10.40;99.90;;;;;;5113373;28;20508;-62
2021/01/09 00:38:24;;;;;;;4.18;2.28;;;10.30;99.90;;;;;;5110818;28;20381;-61
2021/01/09 00:40:52;;;;;;;4.57;2.50;;;10.30;99.90;;;;;;5083889;28;20552;-62
2021/01/09 00:43:20;;;;;;;4.05;2.22;;;10.30;99.90;;;;;;5088076;28;20213;-62
2021/01/09 00:45:49;;;;;;;3.65;2.05;;;10.30;99.90;;;;;;5112719;28;20048;-62
2021/01/09 00:48:17;;;;;;;6.60;2.50;;;10.30;99.90;;;;;;5093775;28;20178;-62
2021/01/09 00:50:47;;;;;;;3.55;1.80;;;10.30;99.90;;;;;;5100144;28;20048;-61
2021/01/09 00:53:16;;;;;;;5.03;0.98;;;10.20;99.90;;;;;;5099077;28;20050;-61
2021/01/09 00:55:46;;;;;;;3.55;2.22;;;10.20;99.90;;;;;;5110995;28;20170;-61
2021/01/09 00:58:14;;;;;;;5.18;1.52;;;10.20;99.90;;;;;;5092693;28;20050;-61
2021/01/09 01:00:41;;;;;;;3.25;1.52;;;10.20;99.90;;;;;;5096699;28;20526;-59
2021/01/09 01:03:09;;;;;;;4.75;2.05;;;10.30;99.90;;;;;;5116364;28;20055;-61
2021/01/09 01:05:37;;;;;;;8.65;2.30;;;10.20;99.90;;;;;;5075055;28;20048;-62
2021/01/09 01:08:05;;;;;;;4.43;1.55;;;10.20;99.90;;;;;;5075220;28;20460;-61
2021/01/09 01:10:33;;;;;;;3.60;1.98;;;10.20;99.90;;;;;;5076219;28;20099;-61
2021/01/09 01:13:00;;;;;;;10.80;1.90;;;10.20;99.90;;;;;;5074811;28;20060;-59
2021/01/09 01:15:28;;;;;;;3.80;2.08;;;10.20;99.90;;;;;;5074913;28;20059;-61
2021/01/09 01:17:56;;;;;;;6.20;2.08;;;10.20;99.90;;;;;;5091720;28;20102;-61
2021/01/09 01:20:23;;;;;;;7.03;2.42;;;10.20;99.90;;;;;;5075985;28;20497;-60
2021/01/09 01:22:51;;;;;;;5.20;1.83;;;10.20;99.90;;;;;;5046668;28;20048;-61
2021/01/09 01:25:19;;;;;;;6.20;1.77;;;10.20;99.90;;;;;;5043235;28;20160;-62
2021/01/09 01:27:47;;;;;;;4.78;2.15;;;10.20;99.90;;;;;;5054525;28;20073;-61
2021/01/09 01:30:16;;;;;;;7.18;2.42;;;10.20;99.90;;;;;;5054698;28;20040;-59
2021/01/09 01:32:43;;;;;;;3.88;1.20;;;10.20;99.90;;;;;;5071196;28;20048;-61
2021/01/09 01:35:11;;;;;;;8.98;2.35;;;10.10;99.90;;;;;;5055381;28;20047;-61
2021/01/09 01:37:39;;;;;;;13.35;2.45;;;10.20;99.90;;;;;;5054633;28;20049;-61
2021/01/09 01:40:08;;;;;;;9.55;2.13;;;10.10;99.90;;;;;;5055744;28;20135;-61
2021/01/09 01:42:38;;;;;;;3.90;1.65;;;10.20;99.90;;;;;;5054627;28;20072;-61
2021/01/09 01:45:08;;;;;;;6.30;1.85;;;10.20;99.90;;;;;;5054047;28;20049;-61
2021/01/09 01:47:37;;;;;;;7.80;1.38;;;10.20;99.90;;;;;;5054616;28;20053;-60
2021/01/09 01:50:05;;;;;;;5.35;1.40;;;10.20;99.90;;;;;;5055689;28;20048;-61
2021/01/09 01:52:33;;;;;;;4.35;2.55;;;10.20;99.90;;;;;;5065836;28;20049;-61
2021/01/09 01:55:02;;;;;;;2.40;0.95;;;10.20;99.90;;;;;;5074591;28;20052;-62
2021/01/09 01:57:31;;;;;;;6.35;1.48;;;10.20;99.90;;;;;;5074674;28;20060;-61
2021/01/09 01:59:58;;;;;;;4.53;1.60;;;10.10;99.90;;;;;;5074089;28;20056;-61
2021/01/09 02:02:27;;;;;;;5.97;1.60;;;10.10;99.90;;;;;;5075475;28;20123;-61
2021/01/09 02:05:00;;;;;;;4.57;1.10;;;10.20;99.90;;;;;;5085474;28;20516;-60
2021/01/09 02:07:35;;;;;;;6.72;1.70;;;10.10;99.90;;;;;;5098137;28;20088;-61
2021/01/09 02:10:04;;;;;;;8.00;1.42;;;10.10;99.90;;;;;;5115672;28;20052;-61
2021/01/09 02:12:56;;;;;;;2.42;1.02;;;10.10;99.90;;;;;;5115994;27;20179;-61
2021/01/09 02:15:26;;;;;;;7.13;1.33;;;10.10;99.90;;;;;;5115462;28;20093;-60
2021/01/09 02:17:54;;;;;;;3.63;1.48;;;10.20;99.90;;;;;;5114416;28;20047;-61
2021/01/09 02:20:26;;;;;;;6.97;1.80;;;10.10;99.90;;;;;;5115533;28;20051;-61
2021/01/09 02:22:57;;;;;;;5.43;1.23;;;10.10;99.90;;;;;;5100844;28;20052;-60
2021/01/09 02:25:24;;;;;;;12.15;2.08;;;10.10;99.90;;;;;;5094698;28;20060;-60
2021/01/09 02:27:53;;;;;;;7.68;2.03;;;10.20;99.90;;;;;;5093856;28;20059;-61
2021/01/09 02:30:29;;;;;;;4.43;1.92;;;10.20;99.90;;;;;;5094856;28;20420;-61
2021/01/09 02:33:06;;;;;;;3.53;1.42;;;10.20;99.90;;;;;;5093682;28;20094;-61
2021/01/09 02:35:36;;;;;;;6.55;1.48;;;10.20;99.90;;;;;;5093628;28;20076;-61
2021/01/09 02:38:05;;;;;;;5.47;1.27;;;10.20;99.90;;;;;;5093854;28;20070;-61
2021/01/09 02:40:40;;;;;;;9.52;1.67;;;10.20;99.90;;;;;;5093576;28;20516;-61
2021/01/09 02:43:12;;;;;;;2.25;0.80;;;10.30;99.90;;;;;;5094814;28;20060;-60
2021/01/09 02:45:41;;;;;;;5.85;1.50;;;10.30;99.90;;;;;;5093823;28;20072;-61
2021/01/09 02:48:09;;;;;;;5.95;0.80;;;10.30;99.90;;;;;;5093555;28;20125;-61
2021/01/09 02:50:37;;;;;;;6.00;1.73;;;10.30;99.90;;;;;;5093794;28;20559;-61
2021/01/09 02:53:04;;;;;;;6.55;1.80;;;10.30;99.90;;;;;;5094744;28;20048;-61
2021/01/09 02:55:32;;;;;;;10.40;1.70;;;10.30;99.90;;;;;;5094380;28;20047;-61
2021/01/09 02:58:02;;;;;;;8.85;1.25;;;10.30;99.90;;;;;;5093515;28;20044;-61
2021/01/09 03:00:30;;;;;;;1.63;0.70;;;10.30;99.90;;;;;;5094318;28;20114;-61
2021/01/09 03:02:58;;;;;;;6.57;1.13;;;10.40;99.90;;;;;;5094060;28;20055;-60
2021/01/09 03:05:26;;;;;;;12.93;1.35;;;10.40;99.90;;;;;;5086916;28;20143;-60
2021/01/09 03:07:54;;;;;;;12.07;1.80;;;10.40;99.90;;;;;;5096651;28;20075;-61
2021/01/09 03:10:22;;;;;;;2.40;1.35;;;10.40;99.90;;;;;;5114476;28;20101;-61
2021/01/09 03:12:50;;;;;;;6.75;1.58;;;10.40;99.90;;;;;;5113353;28;20048;-61
2021/01/09 03:15:18;;;;;;;11.02;1.20;;;10.40;99.90;;;;;;5113042;28;20047;-61
2021/01/09 03:17:47;;;;;;;3.92;1.02;;;10.40;99.90;;;;;;5114487;28;20075;-60
2021/01/09 03:20:15;;;;;;;2.88;1.17;;;10.40;99.90;;;;;;5114858;28;20047;-59
2021/01/09 03:22:43;;;;;;;5.00;1.70;;;10.40;99.90;;;;;;5100390;28;20534;-62
2021/01/09 03:25:11;;;;;;;6.43;1.60;;;10.40;99.90;;;;;;5092450;28;20117;-62
2021/01/09 03:27:39;;;;;;;6.07;1.77;;;10.40;99.90;;;;;;5094297;28;20052;-62
2021/01/09 03:30:07;;;;;;;3.00;1.42;;;10.40;99.90;;;;;;5092889;28;20052;-61
2021/01/09 03:32:35;;;;;;;5.07;2.55;;;10.40;99.90;;;;;;5094336;28;20408;-62
2021/01/09 03:35:03;;;;;;;3.55;1.13;;;10.40;99.90;;;;;;5076711;28;20416;-62
2021/01/09 03:37:31;;;;;;;9.45;1.83;;;10.40;99.90;;;;;;5094007;28;20051;-62
2021/01/09 03:39:59;;;;;;;5.20;1.52;;;10.50;99.90;;;;;;5092543;28;20059;-61
2021/01/09 03:42:27;;;;;;;7.15;1.50;;;10.50;99.90;;;;;;5092564;28;20052;-62
2021/01/09 03:44:55;;;;;;;3.65;0.75;;;10.50;99.90;;;;;;5091821;28;20138;-61
2021/01/09 03:47:23;;;;;;;4.90;1.27;;;10.50;99.90;;;;;;5092509;28;20052;-61
2021/01/09 03:49:50;;;;;;;5.70;1.10;;;10.50;99.90;;;;;;5093485;28;20058;-61
2021/01/09 03:52:18;;;;;;;5.13;1.52;;;10.50;99.90;;;;;;5106404;28;20043;-61
2021/01/09 03:54:46;;;;;;;2.72;1.42;;;10.50;99.90;;;;;;5077739;28;20173;-62
2021/01/09 03:57:14;;;;;;;3.83;1.10;;;10.60;99.90;;;;;;5092332;28;20116;-62
2021/01/09 03:59:42;;;;;;;5.00;0.70;;;10.60;99.90;;;;;;5093415;28;20048;-59
2021/01/09 04:02:09;;;;;;;6.55;1.35;;;10.60;99.90;;;;;;5093425;28;20052;-61
2021/01/09 04:04:37;;;;;;;7.82;1.75;;;10.70;99.90;;;;;;5092789;28;20051;-61
2021/01/09 04:07:05;;;;;;;3.28;1.25;;;10.70;99.90;;;;;;5092110;28;20048;-62
2021/01/09 04:09:33;;;;;;;3.10;1.17;;;10.70;99.90;;;;;;5091988;28;20048;-61
2021/01/09 04:12:01;;;;;;;3.65;1.27;;;10.70;99.90;;;;;;5091995;28;20052;-61
2021/01/09 04:14:29;;;;;;;8.85;1.38;;;10.70;99.90;;;;;;5092014;28;20044;-62
2021/01/09 04:16:57;;;;;;;7.03;1.65;;;10.70;99.90;;;;;;5093152;28;20048;-61
2021/01/09 04:19:25;;;;;;;7.80;1.92;;;10.60;99.90;;;;;;5091571;28;20135;-62
2021/01/09 04:21:54;;;;;;;2.03;0.85;;;10.60;99.90;;;;;;5101426;28;20540;-62
2021/01/09 04:24:24;;;;;;;5.43;1.33;;;10.60;99.90;;;;;;5112804;28;20052;-61
2021/01/09 04:26:57;;;;;;;5.82;1.52;;;10.60;99.90;;;;;;5107708;28;20043;-61
2021/01/09 04:29:26;;;;;;;5.35;2.17;;;10.60;99.90;;;;;;5091625;28;20052;-61
2021/01/09 04:31:55;;;;;;;15.93;2.63;;;10.60;99.90;;;;;;5089623;28;20049;-61
2021/01/09 04:34:25;;;;;;;6.68;2.03;;;10.70;99.90;;;;;;5089831;28;20060;-61
2021/01/09 04:36:53;;;;;;;6.53;1.77;;;10.70;99.90;;;;;;5092427;28;20044;-61
2021/01/09 04:39:21;;;;;;;7.57;1.58;;;10.70;99.90;;;;;;5092978;28;20063;-61
2021/01/09 04:41:49;;;;;;;5.72;2.33;;;10.70;99.90;;;;;;5075211;28;20079;-61
2021/01/09 04:44:17;;;;;;;8.18;2.05;;;10.80;99.90;;;;;;5092593;28;20048;-61
2021/01/09 04:46:54;;;;;;;7.22;2.67;;;10.80;99.90;;;;;;5075172;28;20393;-61
2021/01/09 04:49:24;;;;;;;8.20;2.17;;;10.90;99.90;;;;;;5073025;28;20040;-61
2021/01/09 04:51:53;;;;;;;5.45;2.03;;;10.90;99.90;;;;;;5099838;28;20043;-61
2021/01/09 04:54:23;;;;;;;7.97;2.42;;;10.90;99.90;;;;;;5108977;28;20536;-61
2021/01/09 04:56:53;;;;;;;5.43;1.90;;;10.90;99.90;;;;;;5093910;28;20052;-61
2021/01/09 04:59:24;;;;;;;7.10;2.00;;;10.90;99.90;;;;;;5110662;28;20497;-61
2021/01/09 05:01:52;;;;;;;12.35;2.60;;;10.80;99.90;;;;;;5111616;28;20055;-61
2021/01/09 05:04:21;;;;;;;5.85;2.53;;;10.80;99.90;;;;;;5112261;28;20116;-61
2021/01/09 05:06:50;;;;;;;6.88;1.75;;;10.80;99.90;;;;;;5113185;28;20044;-61
2021/01/09 05:09:17;;;;;;;13.85;2.45;;;10.80;99.90;;;;;;5112319;28;20040;-61
2021/01/09 05:11:46;;;;;;;5.50;2.15;;;10.70;99.90;;;;;;5113617;28;20040;-61
2021/01/09 05:14:14;;;;;;;8.00;2.08;;;10.70;99.90;;;;;;5112030;28;20047;-61
2021/01/09 05:16:42;;;;;;;10.18;2.58;;;10.70;99.90;;;;;;5111077;28;20039;-60
2021/01/09 05:19:09;;;;;;;7.55;2.22;;;10.70;99.90;;;;;;5112287;28;20496;-60
2021/01/09 05:21:37;;;;;;;4.38;2.55;;;10.60;99.90;;;;;;5109519;28;20097;-61
2021/01/09 05:24:09;;;;;;;8.30;2.25;;;10.70;99.90;;;;;;5110910;28;20047;-61
2021/01/09 05:26:38;;;;;;;4.57;1.52;;;10.70;99.90;;;;;;5109707;28;20075;-62
2021/01/09 05:29:07;;;;;;;6.50;2.13;;;10.70;99.90;;;;;;5092769;28;20039;-62
2021/01/09 05:31:35;;;;;;;9.45;3.10;;;10.80;99.90;;;;;;5096053;28;20044;-62
2021/01/09 05:34:04;;;;;;;11.73;2.75;;;10.80;99.90;;;;;;5113861;28;20173;-62
2021/01/09 05:36:33;;;;;;;5.78;2.53;;;10.80;99.90;;;;;;5115377;28;20101;-61
2021/01/09 05:39:03;;;;;;;9.15;2.40;;;10.80;99.90;;;;;;5114544;28;20068;-62
2021/01/09 05:41:31;;;;;;;12.05;4.00;;;10.80;99.90;;;;;;5115125;28;20097;-62
2021/01/09 05:44:05;;;;;;;8.88;2.47;;;10.80;99.90;;;;;;5114816;28;20054;-61
2021/01/09 05:46:38;;;;;;;12.60;3.05;;;10.80;99.90;;;;;;5115205;28;20044;-61
2021/01/09 05:49:09;;;;;;;7.32;2.97;;;10.80;99.90;;;;;;5116313;28;20054;-61
2021/01/09 05:51:39;;;;;;;11.90;2.47;;;10.80;99.90;;;;;;5089037;28;20078;-61
2021/01/09 05:54:08;;;;;;;6.55;2.63;;;10.90;99.90;;;;;;5077434;28;20113;-61
2021/01/09 05:56:39;;;;;;;8.23;2.40;;;10.90;99.90;;;;;;5094508;28;20055;-61
2021/01/09 05:59:09;;;;;;;9.32;2.63;;;10.80;99.90;;;;;;5077523;28;20052;-61
2021/01/09 06:01:41;;;;;;;7.22;2.20;;;10.80;99.90;;;;;;5094502;28;20575;-62
2021/01/09 06:04:32;;;;;;;13.73;2.65;;;10.80;99.90;;;;;;5086544;28;20055;-61
2021/01/09 06:07:14;;;;;;;10.32;2.30;;;10.90;99.90;;;;;;5114956;28;20131;-61
2021/01/09 06:10:04;;;;;;;7.80;2.53;;;10.90;99.90;;;;;;5115869;28;20048;-62
2021/01/09 06:12:56;;;;;;;7.95;1.83;;;10.90;99.90;;;;;;5115947;27;20099;-62
2021/01/09 06:15:24;;;;;;;3.80;2.05;;;10.90;99.90;;;;;;5095047;28;20492;-61
2021/01/09 06:17:53;;;;;;;8.77;1.85;;;10.90;99.90;;;;;;5095230;28;20054;-61
2021/01/09 06:20:21;;;;;;;9.02;2.20;;;10.90;99.90;;;;;;5095265;28;20052;-61
2021/01/09 06:22:50;;;;;;;6.20;1.95;;;10.90;99.90;;;;;;5094002;28;20416;-61
2021/01/09 06:25:19;;;;;;;7.95;2.28;;;10.80;99.90;;;;;;5094662;28;20048;-61
2021/01/09 06:27:52;;;;;;;4.28;2.40;;;10.90;99.90;;;;;;5097600;28;20059;-61
2021/01/09 06:30:21;;;;;;;6.38;2.38;;;10.90;99.90;;;;;;5097412;28;20044;-61
2021/01/09 06:33:03;;;;;;;7.97;2.20;;;10.80;99.90;;;;;;5115426;28;20050;-61
2021/01/09 06:35:34;;;;;;;10.05;3.70;;;10.80;99.90;;;;;;5094468;28;20056;-61
2021/01/09 06:38:02;;;;;;;10.20;3.35;;;10.70;99.90;;;;;;5094961;28;20040;-61
2021/01/09 06:40:31;;;;;;;6.75;2.72;;;10.70;99.90;;;;;;5094870;28;20528;-62
2021/01/09 06:43:00;;;;;;;5.53;2.88;;;10.80;99.90;;;;;;5076877;28;20044;-62
2021/01/09 06:45:30;;;;;;;7.60;3.30;;;10.80;99.90;;;;;;5111964;28;20052;-62
2021/01/09 06:47:59;;;;;;;7.00;2.55;;;10.80;99.90;;;;;;5096910;28;20055;-62
2021/01/09 06:50:31;;;;;;;10.32;2.85;;;10.80;99.90;;;;;;5114642;28;20050;-62
2021/01/09 06:53:00;;;;;;;7.93;2.95;;;10.80;99.90;;;;;;5114176;28;20047;-62
2021/01/09 06:55:37;;;;;;;8.02;2.40;;;10.80;99.90;;;;;;5078520;28;20139;-62
2021/01/09 06:58:06;;;;;;;20.02;4.13;;;10.90;99.90;;;;;;5093304;28;20048;-57
2021/01/09 07:00:35;;;;;;;6.90;2.53;;;10.90;99.90;;;;;;5094318;28;20121;-62
2021/01/09 07:03:17;;;;;;;9.30;3.33;;;10.80;99.90;;;;;;5095063;28;20108;-62
2021/01/09 07:05:47;;;;;;;9.45;2.97;;;10.80;99.90;;;;;;5094816;28;20048;-62
2021/01/09 07:08:29;;;;;;;8.80;4.68;;;10.80;99.90;;;;;;5098840;28;20097;-63
2021/01/09 07:11:04;;;;;;;8.68;3.53;;;10.90;99.90;;;;;;5104405;28;20043;-63
2021/01/09 07:13:33;;;;;;;10.63;3.58;;;11.00;99.90;;;;;;5095494;28;20102;-63
2021/01/09 07:16:15;;;;;;;7.47;3.30;;;11.10;99.90;;;;;;5094100;28;20048;-63
2021/01/09 07:18:47;;;;;;;7.60;3.33;;;11.10;99.90;;;;;;5110795;28;20047;-63
2021/01/09 07:21:19;;;;;;;8.65;3.45;;;11.20;99.90;;;;;;5079024;28;20056;-63
2021/01/09 07:23:54;;;;;;;7.65;2.40;;;11.20;99.90;;;;;;5111830;28;20100;-63
2021/01/09 07:26:23;;;;;;;;;;;11.20;99.90;;;;;;5108423;28;20075;-62
2021/01/09 07:28:52;;;;;;;8.07;3.10;;;11.40;99.90;;;;;;5112168;28;19923;-63
2021/01/09 07:31:28;;;;;;;8.52;2.70;;;11.30;99.90;;;;;;5101570;28;20501;-63
2021/01/09 07:33:58;;;;;;;6.80;3.13;;;11.20;99.90;;;;;;5094941;28;20052;-62
2021/01/09 07:36:29;;;;;;;10.63;4.32;;;11.20;99.90;;;;;;5111646;28;20055;-63
2021/01/09 07:39:03;;;;;;;11.55;2.60;;;11.20;99.90;;;;;;5089419;28;20048;-63
2021/01/09 07:41:33;;;;;;;10.52;2.00;;;11.20;99.90;;;;;;5092856;28;20505;-62
2021/01/09 07:44:19;;;;;;;7.25;2.92;;;11.20;99.90;;;;;;5094351;27;20425;-62
2021/01/09 07:47:00;;;;;;;6.80;3.97;;;11.20;99.90;;;;;;5095663;28;20086;-63
2021/01/09 07:49:36;;;;;;;5.05;3.03;;;11.20;99.90;;;;;;5094470;28;20134;-62
2021/01/09 07:52:12;;;;;;;8.63;4.13;;;11.20;99.90;;;;;;5092385;28;20048;-62
2021/01/09 07:54:44;;;;;;;9.93;3.47;;;11.20;99.90;;;;;;5104646;28;20051;-63
2021/01/09 07:57:18;;;;;;;13.70;4.72;;;11.10;99.90;;;;;;5094638;28;20040;-62
2021/01/09 07:59:55;;;;;;;8.00;3.95;;;11.20;99.90;;;;;;5102338;28;20126;-60
2021/01/09 08:02:23;;;;;;;40.55;18.40;;;11.10;99.90;;;;;;5110948;28;20053;-62
2021/01/09 08:05:11;;;;;;;60.20;23.88;;;11.20;99.90;;;;;;5111240;28;20047;-63
2021/01/09 08:07:54;;;;;;;15.43;6.35;;;11.20;99.90;;;;;;5113521;28;20464;-62
2021/01/09 08:10:33;;;;;;;33.53;19.60;;;11.20;99.90;;;;;;5103300;28;20048;-62
2021/01/09 08:13:06;;;;;;;21.17;11.85;;;11.20;99.90;;;;;;5112578;28;20063;-58
2021/01/09 08:15:37;;;;;;;28.33;15.13;;;11.20;99.90;;;;;;5113201;28;20062;-63
2021/01/09 08:18:06;;;;;;;9.93;4.82;;;11.30;99.90;;;;;;5094279;28;20124;-63
2021/01/09 08:20:34;;;;;;;8.82;5.28;;;11.40;99.90;;;;;;5105698;28;20055;-62
2021/01/09 08:23:08;;;;;;;12.35;5.22;;;11.40;99.90;;;;;;5092724;28;20044;-62
2021/01/09 08:25:38;;;;;;;8.63;4.35;;;11.50;99.90;;;;;;5082038;28;20078;-62
2021/01/09 08:28:06;;;;;;;8.52;5.53;;;11.50;99.90;;;;;;5099012;28;20059;-63
2021/01/09 08:30:37;;;;;;;12.23;4.63;;;11.40;99.90;;;;;;5094233;28;20040;-62
2021/01/09 08:33:09;;;;;;;11.38;6.45;;;11.40;99.90;;;;;;5108548;28;20465;-63
2021/01/09 08:35:40;;;;;;;8.48;5.18;;;11.50;99.90;;;;;;5110425;28;20126;-62
2021/01/09 08:38:08;;;;;;;15.88;7.03;;;11.40;99.90;;;;;;5107605;28;20040;-64
2021/01/09 08:40:37;;;;;;;10.88;4.63;;;11.40;99.90;;;;;;5092980;28;20044;-63
2021/01/09 08:43:10;;;;;;;8.88;4.80;;;11.40;99.90;;;;;;5092904;28;20052;-61
2021/01/09 08:45:48;;;;;;;12.80;4.15;;;11.50;99.90;;;;;;5092175;28;20055;-62
2021/01/09 08:48:26;;;;;;;16.90;7.35;;;11.60;99.90;;;;;;5091685;28;20048;-63
2021/01/09 08:51:05;;;;;;;16.50;5.68;;;11.70;99.90;;;;;;5112404;28;20092;-64
2021/01/09 08:53:36;;;;;;;9.80;3.63;;;11.70;99.90;;;;;;5097114;28;20135;-63
2021/01/09 08:56:05;;;;;;;9.07;3.70;;;11.70;99.90;;;;;;5110136;28;20488;-64
2021/01/09 08:58:34;;;;;;;8.85;4.53;;;11.70;99.90;;;;;;5095298;28;20039;-64
2021/01/09 09:01:06;;;;;;;10.35;3.85;;;11.80;99.90;;;;;;5094576;28;20525;-64
2021/01/09 09:03:40;;;;;;;11.52;4.38;;;11.90;99.90;;;;;;5110193;28;20066;-64
2021/01/09 09:06:09;;;;;;;12.35;4.57;;;12.00;99.90;;;;;;5116640;28;20516;-65
2021/01/09 09:08:39;;;;;;;8.20;3.67;;;12.10;99.90;;;;;;5101764;28;20048;-64
2021/01/09 09:11:07;;;;;;;10.07;4.93;;;12.10;99.90;;;;;;5102661;28;20051;-65
2021/01/09 09:13:39;;;;;;;9.93;5.43;;;12.20;99.90;;;;;;5112059;27;20044;-64
2021/01/09 09:16:18;;;;;;;11.38;5.00;;;12.20;99.90;;;;;;5116190;28;20047;-63
2021/01/09 09:18:47;;;;;;;5.78;3.15;;;12.40;99.90;;;;;;5114057;28;20164;-64
2021/01/09 09:21:18;;;;;;;7.65;4.15;;;12.40;99.90;;;;;;5096617;28;20060;-64
2021/01/09 09:23:54;;;;;;;11.00;5.45;;;12.50;99.90;;;;;;5107957;28;20047;-64
2021/01/09 09:26:32;;;;;;;9.65;5.65;;;12.50;99.90;;;;;;5098482;28;20483;-64
2021/01/09 09:29:00;;;;;;;9.82;5.38;;;12.60;99.90;;;;;;5102710;28;20048;-64
2021/01/09 09:31:47;;;;;;;8.18;4.25;;;12.70;99.90;;;;;;5073807;28;20539;-65
2021/01/09 09:34:16;;;;;;;5.68;2.85;;;12.90;99.90;;;;;;5095454;28;20048;-62
2021/01/09 09:36:53;;;;;;;6.57;3.13;;;13.00;99.90;;;;;;5116228;28;20051;-64
2021/01/09 09:39:26;;;;;;;9.85;2.97;;;13.10;99.90;;;;;;5104697;28;20052;-64
2021/01/09 09:42:02;;;;;;;14.50;2.72;;;13.20;99.90;;;;;;5096615;28;20036;-64
2021/01/09 09:44:38;;;;;;;11.10;2.88;;;13.10;99.90;;;;;;5110145;28;20047;-64
2021/01/09 09:47:23;;;;;;;9.93;4.00;;;13.20;99.90;;;;;;5114403;28;20118;-64
2021/01/09 09:50:01;;;;;;;7.22;3.13;;;13.20;99.90;;;;;;5097545;28;20055;-64
2021/01/09 09:52:32;;;;;;;11.25;3.85;;;13.10;99.90;;;;;;5110921;28;20043;-64
2021/01/09 09:55:04;;;;;;;10.68;4.50;;;13.00;99.90;;;;;;5103220;28;20118;-64
2021/01/09 09:57:32;;;;;;;28.63;14.02;;;13.00;99.90;;;;;;5115755;28;20050;-64
2021/01/09 10:00:04;;;;;;;27.45;14.00;;;13.10;99.90;;;;;;5113897;28;20043;-64
2021/01/09 10:02:52;;;;;;;10.13;5.13;;;13.10;99.90;;;;;;5107761;28;20055;-64
2021/01/09 10:05:24;;;;;;;10.15;4.55;;;13.00;99.90;;;;;;5105658;28;20127;-64
2021/01/09 10:08:10;;;;;;;11.65;6.15;;;13.10;99.90;;;;;;5104605;28;20056;-64
2021/01/09 10:10:52;;;;;;;7.88;4.85;;;13.20;99.90;;;;;;5111606;28;20059;-64
2021/01/09 10:13:27;;;;;;;14.82;7.10;;;13.40;99.90;;;;;;5076920;28;20059;-64
2021/01/09 10:15:56;;;;;;;9.02;4.25;;;13.60;99.90;;;;;;5094877;28;20052;-65
2021/01/09 10:18:25;;;;;;;8.43;3.55;;;13.90;99.90;;;;;;5100074;28;20051;-64
2021/01/09 10:20:53;;;;;;;5.03;2.72;;;14.00;99.90;;;;;;5114308;28;20043;-65
2021/01/09 10:23:21;;;;;;;9.35;4.00;;;14.10;99.90;;;;;;5108219;28;20390;-64
2021/01/09 10:25:55;;;;;;;12.23;5.50;;;14.30;99.90;;;;;;5110418;28;20064;-64
2021/01/09 10:28:24;;;;;;;9.38;3.42;;;14.30;99.90;;;;;;5115437;28;20048;-64
2021/01/09 10:30:52;;;;;;;6.40;2.45;;;14.40;99.90;;;;;;5113892;28;20488;-64
2021/01/09 10:33:20;;;;;;;8.18;4.65;;;14.40;99.90;;;;;;5112981;28;20066;-64
2021/01/09 10:35:48;;;;;;;9.20;2.63;;;14.70;99.90;;;;;;5110691;28;20046;-64
2021/01/09 10:38:16;;;;;;;7.47;2.17;;;14.70;99.90;;;;;;5101293;28;20421;-64
2021/01/09 10:40:44;;;;;;;7.05;2.28;;;14.80;99.90;;;;;;5094907;28;20055;-63
2021/01/09 10:43:13;;;;;;;10.75;2.38;;;14.70;99.90;;;;;;5110453;28;20052;-63
2021/01/09 10:45:40;;;;;;;5.93;2.33;;;14.60;99.90;;;;;;5114914;28;20092;-63
2021/01/09 10:48:09;;;;;;;8.45;3.60;;;14.50;99.90;;;;;;5115241;28;20052;-64
2021/01/09 10:50:36;;;;;;;3.67;2.08;;;14.60;99.90;;;;;;5096277;28;20496;-63
2021/01/09 10:53:05;;;;;;;5.82;1.88;;;14.60;99.90;;;;;;5111054;28;20044;-63
2021/01/09 10:55:35;;;;;;;4.93;2.97;;;14.60;99.90;;;;;;5097353;28;20047;-63
2021/01/09 10:58:04;;;;;;;5.03;1.77;;;14.40;99.90;;;;;;5113612;28;20043;-65
2021/01/09 11:00:31;;;;;;;3.63;1.80;;;14.40;99.90;;;;;;5100138;28;20522;-63
2021/01/09 11:02:59;;;;;;;4.80;1.98;;;14.30;99.90;;;;;;5107254;28;20051;-64
2021/01/09 11:05:30;;;;;;;4.75;2.28;;;14.40;99.90;;;;;;5111571;28;20112;-64
2021/01/09 11:07:58;;;;;;;5.93;2.55;;;14.50;99.90;;;;;;5096898;28;20043;-64
2021/01/09 11:10:31;;;;;;;6.20;2.40;;;14.60;99.90;;;;;;5111226;28;20081;-64
2021/01/09 11:13:03;;;;;;;4.68;1.48;;;14.60;99.90;;;;;;5111618;28;20058;-64
2021/01/09 11:15:31;;;;;;;3.67;1.83;;;14.70;99.90;;;;;;5113824;28;20093;-64
2021/01/09 11:17:59;;;;;;;6.93;2.47;;;14.70;99.90;;;;;;5113664;28;20054;-63
2021/01/09 11:20:27;;;;;;;2.20;1.13;;;14.80;99.90;;;;;;5106541;28;20047;-64
2021/01/09 11:22:57;;;;;;;4.68;1.77;;;14.80;99.90;;;;;;5094402;28;20048;-63
2021/01/09 11:25:25;;;;;;;2.97;1.33;;;14.80;99.90;;;;;;5086017;28;20086;-63
2021/01/09 11:27:53;;;;;;;6.65;1.52;;;15.00;99.90;;;;;;5112354;28;20051;-64
2021/01/09 11:30:21;;;;;;;5.47;1.75;;;15.00;99.90;;;;;;5078690;28;20148;-64
2021/01/09 11:32:49;;;;;;;4.88;2.40;;;15.10;99.90;;;;;;5094205;28;20048;-65
2021/01/09 11:35:17;;;;;;;14.48;1.10;;;15.20;99.90;;;;;;5091921;28;20072;-65
2021/01/09 11:37:45;;;;;;;6.20;1.52;;;15.40;99.90;;;;;;5103713;28;20044;-65
2021/01/09 11:40:13;;;;;;;11.98;3.58;;;15.50;99.90;;;;;;5093843;28;20467;-65
2021/01/09 11:42:42;;;;;;;3.50;0.50;;;15.40;99.90;;;;;;5103740;28;20050;-65
2021/01/09 11:45:10;;;;;;;2.10;0.95;;;14.90;99.90;;;;;;5108359;28;20057;-65
2021/01/09 11:47:38;;;;;;;2.72;0.50;;;14.80;99.90;;;;;;5098362;28;20064;-65
2021/01/09 11:50:06;;;;;;;3.08;0.70;;;14.70;99.90;;;;;;5097980;28;20046;-65
2021/01/09 11:52:34;;;;;;;1.63;0.47;;;14.70;99.90;;;;;;5107864;28;20119;-63
2021/01/09 11:55:02;;;;;;;3.55;0.80;;;14.80;99.90;;;;;;5095263;28;20139;-65
2021/01/09 11:57:31;;;;;;;2.70;0.88;;;15.00;99.90;;;;;;5110730;28;20516;-65
2021/01/09 11:59:59;;;;;;;1.60;0.63;;;15.10;99.90;;;;;;5100135;28;20048;-64
2021/01/09 12:02:38;;;;;;;1.90;0.60;;;14.80;99.90;;;;;;5105140;28;20389;-65
2021/01/09 12:05:07;;;;;;;5.45;1.38;;;14.70;99.90;;;;;;5112431;28;20052;-64
2021/01/09 12:07:35;;;;;;;13.50;1.80;;;14.60;99.90;;;;;;5106816;28;20058;-63
2021/01/09 12:10:07;;;;;;;5.68;1.92;;;14.50;99.90;;;;;;5095935;28;20571;-65
2021/01/09 12:12:36;;;;;;;3.40;1.17;;;14.70;99.90;;;;;;5102032;28;20048;-65
2021/01/09 12:15:04;;;;;;;2.47;0.77;;;14.70;99.90;;;;;;5102850;28;20051;-66
2021/01/09 12:17:34;;;;;;;2.72;1.05;;;14.60;99.90;;;;;;5107445;28;20040;-65
2021/01/09 12:20:03;;;;;;;4.43;1.33;;;14.50;99.90;;;;;;5112412;28;20066;-65
2021/01/09 12:22:31;;;;;;;5.03;1.92;;;14.50;99.90;;;;;;5099322;28;20052;-66
2021/01/09 12:24:59;;;;;;;2.08;0.90;;;14.50;99.90;;;;;;5076506;28;20051;-66
2021/01/09 12:27:27;;;;;;;2.33;0.93;;;14.60;99.90;;;;;;5112308;28;20051;-66
2021/01/09 12:29:55;;;;;;;2.28;0.93;;;14.70;99.90;;;;;;5109551;28;20052;-66
2021/01/09 12:32:30;;;;;;;1.00;0.50;;;14.80;99.90;;;;;;5077097;28;20501;-65
2021/01/09 12:34:58;;;;;;;3.17;0.60;;;15.00;99.90;;;;;;5101846;28;20051;-65
2021/01/09 12:37:26;;;;;;;1.30;0.57;;;15.00;99.90;;;;;;5113085;28;20096;-65
2021/01/09 12:39:53;;;;;;;1.75;0.52;;;14.90;99.90;;;;;;5100221;28;20044;-65
2021/01/09 12:42:24;;;;;;;4.70;1.23;;;14.70;99.90;;;;;;5098162;28;20040;-64
2021/01/09 12:44:52;;;;;;;2.13;0.50;;;14.50;99.90;;;;;;5115588;28;20055;-64
2021/01/09 12:47:20;;;;;;;7.32;0.50;;;14.50;99.90;;;;;;5105812;28;20135;-63
2021/01/09 12:49:47;;;;;;;1.60;0.80;;;14.40;99.90;;;;;;5096749;28;20082;-65
2021/01/09 12:52:15;;;;;;;7.35;3.75;;;14.30;99.90;;;;;;5106839;28;20050;-64
2021/01/09 12:54:43;;;;;;;5.43;2.42;;;14.20;99.90;;;;;;5115584;28;20077;-64
2021/01/09 12:57:11;;;;;;;4.57;2.90;;;14.20;99.90;;;;;;5115018;28;20048;-64
2021/01/09 12:59:38;;;;;;;5.70;2.20;;;14.30;99.90;;;;;;5115268;28;20530;-65
2021/01/09 13:02:06;;;;;;;1.45;0.60;;;14.10;99.90;;;;;;5115791;28;20055;-64